Time;durP1;ratioP1;P1;durP2;ratioP2;P2;SDS_P1;SDS_P2;PMS_P1;PMS_P2;Temp;Humidity;BMP_temperature;BMP_pressure;BME280_temperature;BME280_humidity;BME280_pressure;Samples;Min_cycle;Max_cycle;Signal;HPM_P1;HPM_P2
2022/02/06 00:08:04;;;;;;;;;3.50;3.00;;;;;9.04;59.24;101919.59;6282332;22;46528;-83
2022/02/06 00:10:30;;;;;;;;;4.25;3.50;;;;;9.11;59.47;101903.94;6305807;22;45452;-83
2022/02/06 00:12:59;;;;;;;;;4.50;4.50;;;;;9.23;59.34;101927.84;6306064;22;46280;-83
2022/02/06 00:15:25;;;;;;;;;3.50;3.00;;;;;9.26;59.49;101934.06;6306541;22;45405;-83
2022/02/06 00:17:50;;;;;;;;;3.25;3.25;;;;;9.28;59.34;101932.34;6306585;22;45369;-83
2022/02/06 00:20:19;;;;;;;;;2.75;1.75;;;;;9.13;59.42;101908.38;6278497;22;45652;-83
2022/02/06 00:22:51;;;;;;;;;3.00;3.00;;;;;9.15;59.10;101897.91;6278369;22;47868;-83
2022/02/06 00:30:30;;;;;;;;;1.75;1.75;;;;;9.15;59.04;101898.78;6306213;22;45525;-83
2022/02/06 00:33:11;;;;;;;;;3.75;3.00;;;;;9.33;58.99;101927.19;6278352;22;47407;-83
2022/02/06 00:43:45;;;;;;;;;3.50;2.25;;;;;9.12;59.38;101875.09;6305990;22;45460;-82
2022/02/06 00:46:51;;;;;;;;;2.75;2.00;;;;;9.30;59.59;101903.47;6278603;22;45478;-82
2022/02/06 00:49:39;;;;;;;;;4.00;2.50;;;;;9.27;59.50;101885.00;6277886;22;45485;-83
2022/02/06 00:52:13;;;;;;;;;4.00;3.00;;;;;9.27;59.41;101885.00;6278076;22;45413;-83
2022/02/06 00:54:39;;;;;;;;;3.25;2.25;;;;;9.11;59.29;101868.03;6306096;22;46297;-82
2022/02/06 00:57:06;;;;;;;;;2.25;2.25;;;;;9.15;59.45;101871.63;6278203;22;45344;-82
2022/02/06 00:59:32;;;;;;;;;4.00;3.00;;;;;9.19;59.51;101873.47;6279867;22;45472;-85
2022/02/06 01:01:57;;;;;;;;;2.00;2.00;;;;;9.19;59.60;101884.84;6278592;22;45721;-82
2022/02/06 01:04:23;;;;;;;;;4.50;3.00;;;;;9.29;59.91;101888.56;6281123;22;46058;-85
2022/02/06 01:07:14;;;;;;;;;1.75;1.75;;;;;9.20;59.64;101881.38;6309545;22;45356;-85
2022/02/06 01:09:45;;;;;;;;;1.00;1.00;;;;;9.15;59.82;101871.63;6238405;22;45495;-84
2022/02/06 01:12:11;;;;;;;;;4.00;3.50;;;;;9.15;59.90;101880.41;6309552;22;45493;-85
2022/02/06 01:15:36;;;;;;;;;3.50;3.50;;;;;9.17;60.00;101883.06;6309513;22;45164;-84
2022/02/06 01:17:34;;;;;;;;;4.75;2.50;;;;;9.10;59.89;101868.91;6289729;22;45514;-84
2022/02/06 01:20:09;;;;;;;;;4.00;2.00;;;;;9.15;60.29;101863.75;6311880;22;45196;-84
2022/02/06 01:22:46;;;;;;;;;2.50;2.50;;;;;9.02;60.22;101841.59;6283877;22;45224;-84
2022/02/06 01:25:17;;;;;;;;;2.75;2.75;;;;;9.14;60.14;101857.63;6283238;22;46702;-84
2022/02/06 01:27:53;;;;;;;;;4.00;2.75;;;;;9.12;59.86;101854.06;6310167;22;45267;-84
2022/02/06 01:30:23;;;;;;;;;2.75;2.75;;;;;9.13;60.19;101860.22;6307178;22;45186;-84
2022/02/06 01:32:54;;;;;;;;;4.00;2.25;;;;;9.16;60.35;101868.16;6281321;22;45914;-84
2022/02/06 01:35:29;;;;;;;;;3.50;2.50;;;;;9.17;60.09;101867.31;6281573;22;48193;-84
2022/02/06 01:39:04;;;;;;;;;5.00;1.75;;;;;9.08;59.94;101851.34;6281930;22;45219;-84
2022/02/06 01:43:37;;;;;;;;;;;;;;;;;;;;;
2022/02/06 02:05:56;;;;;;;;;2.00;0.00;;;;;9.25;59.71;101800.91;6311688;22;45653;-83
2022/02/06 02:22:08;;;;;;;;;2.75;2.25;;;;;9.22;60.07;101781.56;6279504;22;45309;-84
2022/02/06 02:47:20;;;;;;;;;2.50;2.00;;;;;9.26;61.19;101773.78;6279241;22;45163;-84
2022/02/06 02:49:57;;;;;;;;;1.50;1.00;;;;;9.20;61.17;101763.16;6279594;22;45385;-84
2022/02/06 02:54:54;;;;;;;;;2.50;1.00;;;;;9.22;61.50;101747.41;6279653;22;45364;-84
2022/02/06 02:57:25;;;;;;;;;2.75;2.00;;;;;9.18;61.26;101724.56;6277601;22;45252;-85
2022/02/06 03:00:17;;;;;;;;;1.25;1.25;;;;;9.12;61.43;101719.22;6277962;22;45528;-84
2022/02/06 03:02:43;;;;;;;;;1.50;1.50;;;;;9.26;61.96;101723.84;6279602;22;45929;-85
2022/02/06 03:05:08;;;;;;;;;1.00;1.00;;;;;9.29;62.02;101709.88;6280052;22;45295;-84
2022/02/06 03:07:52;;;;;;;;;;;;;;;;;;;;;
2022/02/06 03:31:59;;;;;;;;;2.00;2.00;;;;;9.33;63.23;101682.81;5709082;25;45556;-85
2022/02/06 03:52:48;;;;;;;;;3.00;3.00;;;;;9.08;64.03;101652.59;6074764;22;45412;-85
2022/02/06 03:58:48;;;;;;;;;;;;;;;;;;;;;
2022/02/06 04:01:57;;;;;;;;;2.75;0.00;;;;;9.21;64.39;101648.44;6274338;22;67518;-86
2022/02/06 04:18:19;;;;;;;;;2.00;2.00;;;;;8.94;65.07;101628.72;6193730;22;45455;-85
2022/02/06 04:21:35;;;;;;;;;1.50;1.50;;;;;8.98;65.57;101625.31;6311376;22;46340;-86
2022/02/06 04:31:40;;;;;;;;;;;;;;;;;;;;;
2022/02/06 04:35:14;;;;;;;;;;;;;;;;;;;;;
2022/02/06 05:42:31;;;;;;;;;;;;;;;;;;;;;
2022/02/06 07:02:19;;;;;;;;;0.25;0.25;;;;;9.60;67.23;101413.34;6279288;22;45101;-84
2022/02/06 07:04:58;;;;;;;;;0.50;0.00;;;;;9.77;66.76;101447.69;6251576;22;47884;-83
2022/02/06 07:07:35;;;;;;;;;1.00;1.00;;;;;9.64;67.10;101410.75;6279125;22;45212;-85
2022/02/06 07:10:02;;;;;;;;;2.00;2.00;;;;;9.62;67.14;101398.44;6278690;22;45210;-85
2022/02/06 07:12:28;;;;;;;;;1.00;1.00;;;;;9.79;67.26;101427.56;6251596;22;45372;-84
2022/02/06 07:14:54;;;;;;;;;3.00;1.67;;;;;9.79;67.24;101419.69;6251360;22;47094;-84
2022/02/06 07:17:20;;;;;;;;;1.00;1.00;;;;;9.75;66.98;101391.56;6251584;22;45308;-83
2022/02/06 07:19:46;;;;;;;;;1.00;1.00;;;;;9.75;66.86;101357.38;6252144;22;45369;-85
2022/02/06 07:22:15;;;;;;;;;2.00;1.00;;;;;9.88;67.05;101393.47;6251318;22;45363;-84
2022/02/06 07:24:45;;;;;;;;;0.00;0.00;;;;;9.88;67.03;101399.59;6250964;22;46745;-83
2022/02/06 07:27:25;;;;;;;;;2.00;2.00;;;;;9.90;68.21;101418.03;6279041;22;45350;-83
2022/02/06 07:29:51;;;;;;;;;3.00;1.33;;;;;9.88;68.11;101396.09;6251131;22;45218;-83
2022/02/06 07:32:28;;;;;;;;;3.00;2.00;;;;;9.76;68.09;101373.19;6251518;22;45146;-84
2022/02/06 07:35:03;;;;;;;;;2.00;1.00;;;;;9.74;68.61;101368.78;6279632;22;46294;-85
2022/02/06 07:37:29;;;;;;;;;2.67;1.00;;;;;9.82;69.10;101378.50;6249839;22;45150;-82
2022/02/06 07:39:54;;;;;;;;;1.00;1.00;;;;;9.76;69.14;101362.69;6277114;22;45433;-82
2022/02/06 07:42:20;;;;;;;;;2.00;2.00;;;;;9.80;68.96;101367.09;6279215;22;45311;-86
2022/02/06 07:44:48;;;;;;;;;4.50;1.75;;;;;9.81;68.57;101375.84;6251356;22;47218;-84
2022/02/06 07:47:17;;;;;;;;;1.00;1.00;;;;;9.72;68.61;101337.22;6279068;22;45370;-84
2022/02/06 07:49:47;;;;;;;;;1.33;1.00;;;;;9.79;68.22;101353.94;6251306;22;45240;-82
2022/02/06 07:52:34;;;;;;;;;1.00;0.33;;;;;9.70;68.04;101341.56;6249502;22;45417;-84
2022/02/06 07:55:09;;;;;;;;;2.75;2.75;;;;;9.69;67.87;101326.66;6272486;22;47244;-83
2022/02/06 07:57:36;;;;;;;;;2.00;1.33;;;;;9.70;68.04;101344.19;6278223;22;45259;-83
2022/02/06 08:00:16;;;;;;;;;;;;;;;;;;;;;
2022/02/06 08:02:43;;;;;;;;;0.50;0.50;;;;;9.81;67.86;101355.72;6278913;22;71448;-83
2022/02/06 08:05:11;;;;;;;;;1.00;1.00;;;;;9.82;67.59;101319.78;6277271;22;48197;-81
2022/02/06 08:07:38;;;;;;;;;1.00;1.00;;;;;9.81;67.82;101310.09;6279977;22;45215;-83
2022/02/06 08:10:05;;;;;;;;;2.00;2.00;;;;;9.80;67.54;101295.22;6279198;22;45320;-84
2022/02/06 08:12:33;;;;;;;;;2.00;2.00;;;;;9.81;67.71;101325.88;6278148;22;45542;-84
2022/02/06 08:15:05;;;;;;;;;3.00;2.00;;;;;9.76;67.65;101303.97;6279728;22;45592;-83
2022/02/06 08:17:36;;;;;;;;;0.00;0.00;;;;;9.70;67.74;101302.13;6279722;22;45333;-83
2022/02/06 08:20:04;;;;;;;;;2.00;1.00;;;;;9.91;67.76;101317.22;6280554;22;45226;-84
2022/02/06 08:22:30;;;;;;;;;1.00;1.00;;;;;9.78;68.08;101304.81;6280607;22;45299;-84
2022/02/06 08:24:56;;;;;;;;;2.00;1.00;;;;;9.77;68.13;101290.81;6279525;22;46721;-85
2022/02/06 08:27:26;;;;;;;;;5.00;4.00;;;;;9.78;68.69;101295.19;6281847;22;45361;-84
2022/02/06 08:29:55;;;;;;;;;1.00;1.00;;;;;9.88;68.61;101304.03;6285909;22;45307;-84
2022/02/06 08:32:26;;;;;;;;;0.67;0.67;;;;;9.77;68.88;101287.31;6289425;22;45335;-83
2022/02/06 08:34:52;;;;;;;;;1.00;1.00;;;;;9.83;69.24;101282.09;6288633;22;47357;-85
2022/02/06 08:37:18;;;;;;;;;1.00;1.00;;;;;9.76;69.63;101282.94;6287376;22;45312;-84
2022/02/06 08:39:46;;;;;;;;;2.00;1.00;;;;;9.83;69.66;101292.59;6292263;22;44665;-84
2022/02/06 08:42:15;;;;;;;;;2.00;0.67;;;;;9.72;69.85;101258.34;6281168;22;45459;-84
2022/02/06 08:44:44;;;;;;;;;1.50;1.00;;;;;9.84;70.10;101271.59;6284188;22;45230;-84
2022/02/06 08:47:14;;;;;;;;;1.67;1.00;;;;;9.87;70.19;101270.72;6279144;22;45395;-84
2022/02/06 08:49:41;;;;;;;;;1.67;1.67;;;;;9.92;70.51;101276.91;6278187;22;45172;-84
2022/02/06 08:52:11;;;;;;;;;0.00;0.00;;;;;9.88;70.17;101264.59;6277461;22;45220;-84
2022/02/06 08:55:14;;;;;;;;;1.00;0.00;;;;;9.94;70.40;101265.53;6277604;22;46713;-87
2022/02/06 08:58:01;;;;;;;;;6.00;4.67;;;;;9.81;70.77;101237.38;6282782;22;45385;-89
2022/02/06 09:00:29;;;;;;;;;2.67;2.00;;;;;9.98;70.47;101241.88;6278633;22;45444;-85
2022/02/06 09:03:51;;;;;;;;;;;;;;;;;;;;;
2022/02/06 09:06:40;;;;;;;;;2.67;1.33;;;;;9.98;70.53;101253.28;6264802;22;75956;-85
2022/02/06 09:09:16;;;;;;;;;1.00;0.00;;;;;9.87;71.10;101208.50;6280353;22;45207;-85
2022/02/06 09:11:42;;;;;;;;;0.33;0.00;;;;;10.03;71.17;101237.53;6279077;22;45199;-84
2022/02/06 09:14:37;;;;;;;;;1.00;1.00;;;;;9.90;71.08;101208.50;6278140;22;45522;-86
2022/02/06 09:17:57;;;;;;;;;;;;;;;;;;;;;
2022/02/06 09:42:24;;;;;;;;;2.00;1.00;;;;;10.26;70.78;101187.66;5728795;24;45225;-84
2022/02/06 09:55:25;;;;;;;;;2.00;0.00;;;;;10.38;70.47;101177.22;5954400;23;45225;-87
2022/02/06 10:15:14;;;;;;;;;;;;;;;;;;;;;
2022/02/06 10:18:16;;;;;;;;;;;;;;;;;;;;;
2022/02/06 10:31:20;;;;;;;;;;;;;;;;;;;;;
2022/02/06 10:34:19;;;;;;;;;0.00;0.00;;;;;10.89;71.07;101212.50;6090692;23;72158;-85
2022/02/06 10:39:39;;;;;;;;;1.00;1.00;;;;;10.84;71.35;101151.03;6215061;22;45281;-85
2022/02/06 10:49:25;;;;;;;;;1.00;1.00;;;;;10.79;71.16;101158.03;6188228;23;45335;-85
2022/02/06 10:52:01;;;;;;;;;0.33;0.00;;;;;10.93;71.22;101174.78;6190368;23;45389;-88
2022/02/06 10:54:34;;;;;;;;;1.75;1.00;;;;;10.98;71.10;101158.94;6270438;22;45393;-87
2022/02/06 10:57:13;;;;;;;;;2.25;0.75;;;;;11.03;71.21;101147.53;6316546;22;45423;-85
2022/02/06 10:59:53;;;;;;;;;1.00;1.00;;;;;10.96;71.13;101131.72;6305066;22;47482;-88
2022/02/06 11:03:09;;;;;;;;;2.00;2.00;;;;;11.11;70.88;101128.22;6330016;22;44613;-87
2022/02/06 11:06:31;;;;;;;;;;;;;;;;;;;;;
2022/02/06 11:08:57;;;;;;;;;1.00;1.00;;;;;11.21;70.63;101122.09;6320617;22;71948;-83
2022/02/06 11:12:00;;;;;;;;;2.33;1.33;;;;;11.32;70.27;101162.47;6299895;22;47116;-87
2022/02/06 11:18:31;;;;;;;;;2.00;1.00;;;;;11.36;69.84;101076.38;6283790;22;45642;-86
2022/02/06 11:25:28;;;;;;;;;2.33;1.00;;;;;11.50;68.97;101087.78;6186015;22;45580;-90
2022/02/06 11:32:21;;;;;;;;;0.00;0.00;;;;;11.56;68.85;101094.81;6170639;22;45374;-88
2022/02/06 11:35:08;;;;;;;;;;;;;;;;;;;;;
2022/02/06 13:04:39;;;;;;;;;;;;;;;;;;;;;
2022/02/06 13:07:41;;;;;;;;;;;;;;;;;;;;;
2022/02/06 13:31:17;;;;;;;;;2.00;2.00;;;;;11.72;73.08;101019.16;6240797;22;45281;-86
2022/02/06 13:40:53;;;;;;;;;1.00;1.00;;;;;11.65;73.70;101023.56;6209466;22;45539;-85
2022/02/06 13:46:55;;;;;;;;;0.67;0.67;;;;;11.54;73.80;100999.88;6150346;23;45389;-85
2022/02/06 13:49:31;;;;;;;;;0.00;0.00;;;;;11.61;73.67;101008.66;6074738;23;45264;-84
2022/02/06 13:52:07;;;;;;;;;4.00;4.00;;;;;11.50;74.00;100978.81;6223853;22;45343;-83
2022/02/06 13:54:39;;;;;;;;;1.00;1.00;;;;;11.56;73.96;100969.09;6319164;22;45203;-90
2022/02/06 13:57:08;;;;;;;;;3.00;2.00;;;;;11.45;74.22;100939.28;6286017;22;47381;-85
2022/02/06 13:59:40;;;;;;;;;1.00;1.00;;;;;11.44;73.91;100940.13;6311250;22;45176;-84
2022/02/06 14:02:08;;;;;;;;;1.00;1.00;;;;;11.53;74.14;100953.31;6311500;22;45473;-82
2022/02/06 14:04:39;;;;;;;;;1.00;1.00;;;;;11.56;74.12;100957.69;6280612;22;45498;-83
2022/02/06 14:07:05;;;;;;;;;0.00;0.00;;;;;11.57;73.96;100954.16;6279288;22;45516;-84
2022/02/06 14:09:47;;;;;;;;;2.00;1.00;;;;;11.57;74.04;100944.47;6281367;22;45710;-87
2022/02/06 14:12:17;;;;;;;;;0.00;0.00;;;;;11.64;73.93;100938.31;6310751;22;45358;-86
2022/02/06 14:14:51;;;;;;;;;0.67;0.67;;;;;11.72;73.65;100924.22;6285175;22;45471;-85
2022/02/06 14:17:53;;;;;;;;;0.33;0.33;;;;;11.78;73.65;100922.41;6311206;22;46383;-84
2022/02/06 14:20:24;;;;;;;;;0.67;0.33;;;;;11.77;73.97;100904.81;6310729;22;45329;-86
2022/02/06 14:22:55;;;;;;;;;1.00;1.00;;;;;11.77;73.43;100885.50;6305887;22;45339;-88
2022/02/06 14:25:29;;;;;;;;;1.00;1.00;;;;;12.00;73.56;100915.28;6279815;22;45828;-84
2022/02/06 14:31:45;;;;;;;;;0.00;0.00;;;;;12.00;72.28;100895.91;6276953;22;45094;-88
2022/02/06 14:34:26;;;;;;;;;0.00;0.00;;;;;11.99;71.90;100879.22;6280022;22;45252;-85
2022/02/06 14:37:18;;;;;;;;;1.67;0.67;;;;;12.13;71.71;100910.75;6276019;22;45445;-82
2022/02/06 14:40:26;;;;;;;;;1.00;1.00;;;;;12.09;71.67;100893.22;6278329;22;46368;-84
2022/02/06 14:42:54;;;;;;;;;3.00;3.00;;;;;12.13;71.77;100911.66;6307516;22;45393;-85
2022/02/06 14:45:20;;;;;;;;;0.00;0.00;;;;;12.14;71.70;100920.47;6307206;22;45187;-82
2022/02/06 14:47:46;;;;;;;;;1.00;1.00;;;;;12.11;71.59;100934.53;6308701;22;45290;-83
2022/02/06 14:50:31;;;;;;;;;1.00;0.00;;;;;12.06;71.87;100909.06;6281631;22;48118;-85
2022/02/06 14:52:57;;;;;;;;;2.00;0.00;;;;;12.18;72.03;100916.00;6307670;22;45417;-83
2022/02/06 14:55:22;;;;;;;;;0.00;0.00;;;;;12.23;72.00;100923.00;6281361;22;45436;-84
2022/02/06 14:57:49;;;;;;;;;0.00;0.00;;;;;12.16;72.44;100907.22;6309112;22;45263;-83
2022/02/06 15:00:14;;;;;;;;;0.00;0.00;;;;;12.13;72.62;100914.31;6280897;22;47105;-82
2022/02/06 15:02:40;;;;;;;;;0.67;0.67;;;;;12.11;72.88;100933.69;6278098;22;45307;-83
2022/02/06 15:05:06;;;;;;;;;0.33;0.00;;;;;12.08;73.05;100934.56;6305781;22;45370;-82
2022/02/06 15:07:31;;;;;;;;;1.67;1.67;;;;;12.00;73.16;100930.22;6309442;22;45362;-83
2022/02/06 15:09:57;;;;;;;;;1.67;1.00;;;;;11.96;73.14;100926.72;6307323;22;45349;-83
2022/02/06 15:12:23;;;;;;;;;0.67;0.67;;;;;11.97;73.04;100925.81;6306362;22;45431;-83
2022/02/06 15:18:53;;;;;;;;;0.00;0.00;;;;;11.88;73.11;100917.97;6305717;22;45637;-81
2022/02/06 15:21:41;;;;;;;;;1.67;1.00;;;;;11.89;73.27;100925.00;6277178;22;47158;-86
2022/02/06 15:24:16;;;;;;;;;1.00;1.00;;;;;11.97;73.45;100920.56;6277051;22;45431;-86
2022/02/06 15:26:41;;;;;;;;;1.00;1.00;;;;;11.90;72.94;100917.09;6277802;22;45283;-83
2022/02/06 15:29:16;;;;;;;;;1.00;1.00;;;;;11.93;73.05;100965.47;6280934;22;45312;-90
2022/02/06 15:31:42;;;;;;;;;1.33;1.00;;;;;11.95;73.17;100946.09;6280628;22;46710;-86
2022/02/06 15:34:14;;;;;;;;;2.67;1.33;;;;;11.98;72.90;100955.75;6283980;22;45240;-88
2022/02/06 15:36:40;;;;;;;;;1.67;1.00;;;;;12.03;73.16;100969.75;6309939;22;45285;-85
2022/02/06 15:39:20;;;;;;;;;3.00;3.00;;;;;12.06;73.17;100981.19;6310589;22;45403;-84
2022/02/06 15:41:49;;;;;;;;;0.33;0.33;;;;;12.11;72.87;100981.19;6281566;22;47190;-86
2022/02/06 15:44:14;;;;;;;;;0.33;0.00;;;;;12.12;72.53;100972.38;6281329;22;45253;-84
2022/02/06 15:46:40;;;;;;;;;1.33;1.33;;;;;12.07;72.52;100974.16;6282193;22;45276;-85
2022/02/06 15:49:05;;;;;;;;;0.67;0.67;;;;;12.04;72.58;100969.78;6281439;22;45710;-85
2022/02/06 15:51:31;;;;;;;;;2.00;1.00;;;;;12.10;72.33;100968.84;6309590;22;45506;-84
2022/02/06 15:53:58;;;;;;;;;2.00;2.00;;;;;12.12;72.46;100957.41;6280911;22;45249;-85
2022/02/06 15:56:24;;;;;;;;;2.00;2.00;;;;;12.09;72.52;100956.56;6307505;22;45392;-84
2022/02/06 15:58:49;;;;;;;;;2.00;1.00;;;;;12.21;72.48;100982.84;6308866;22;45317;-84
2022/02/06 16:01:18;;;;;;;;;1.00;1.00;;;;;12.13;72.44;100959.16;6280409;22;47763;-83
2022/02/06 16:03:43;;;;;;;;;2.00;2.00;;;;;12.13;72.39;100947.72;6280320;22;45345;-84
2022/02/06 16:06:08;;;;;;;;;2.00;1.00;;;;;12.09;72.49;100941.59;6281421;22;45263;-84
2022/02/06 16:08:34;;;;;;;;;3.00;2.00;;;;;12.19;72.49;100950.34;6309416;22;45205;-83
2022/02/06 16:11:00;;;;;;;;;1.00;1.00;;;;;12.23;72.33;100952.03;6281653;22;45358;-82
2022/02/06 16:14:12;;;;;;;;;1.00;0.67;;;;;12.16;72.24;100944.19;6281224;22;45187;-84
2022/02/06 16:16:37;;;;;;;;;3.00;1.00;;;;;12.13;72.43;100926.59;6286785;22;45331;-84
2022/02/06 16:19:03;;;;;;;;;2.00;0.33;;;;;12.13;72.12;100935.41;6281624;22;45484;-83
2022/02/06 16:21:31;;;;;;;;;0.00;0.00;;;;;12.05;72.47;100945.13;6309248;22;46105;-83
2022/02/06 16:23:57;;;;;;;;;3.00;2.67;;;;;12.11;72.31;100949.50;6308579;22;45257;-82
2022/02/06 16:26:23;;;;;;;;;1.00;0.00;;;;;12.10;72.53;100939.81;6281562;22;45312;-82
2022/02/06 16:28:57;;;;;;;;;1.00;0.33;;;;;12.01;72.21;100927.56;6309871;22;45093;-84
2022/02/06 18:22:30;;;;;;;;;;;;;;;;;;;;;
2022/02/06 18:25:12;;;;;;;;;0.33;0.33;;;;;11.88;73.09;100944.38;6216386;22;44820;-85
2022/02/06 18:54:56;;;;;;;;;0.67;0.00;;;;;11.98;73.85;100939.91;6122236;23;45503;-84
2022/02/06 18:57:43;;;;;;;;;0.33;0.33;;;;;11.98;73.92;100932.88;6122695;23;45821;-85
2022/02/06 19:04:32;;;;;;;;;;;;;;;;;;;;;
2022/02/06 19:47:08;;;;;;;;;0.67;0.00;;;;;11.66;76.21;100896.09;6327162;22;45137;-83
2022/02/06 19:49:37;;;;;;;;;1.00;1.00;;;;;11.64;76.09;100905.78;6294753;22;45392;-83
2022/02/06 19:52:25;;;;;;;;;0.00;0.00;;;;;11.64;76.26;100897.88;6299721;22;44793;-84
2022/02/06 19:54:52;;;;;;;;;0.00;0.00;;;;;11.65;76.01;100907.53;6254911;22;44736;-84
2022/02/06 19:57:26;;;;;;;;;1.00;0.00;;;;;11.63;75.83;100923.38;6298815;22;46816;-83
2022/02/06 20:00:17;;;;;;;;;0.00;0.00;;;;;11.62;75.79;100911.06;6294375;22;44799;-85
2022/02/06 20:02:45;;;;;;;;;0.00;0.00;;;;;11.65;75.92;100915.44;6315749;22;45662;-82
2022/02/06 20:05:13;;;;;;;;;0.00;0.00;;;;;11.61;75.53;100905.81;6323817;22;44778;-86
2022/02/06 20:11:16;;;;;;;;;0.00;0.00;;;;;11.69;74.95;100922.47;6316973;22;44791;-83
